Time;durP1;ratioP1;P1;durP2;ratioP2;P2;SDS_P1;SDS_P2;PMS_P1;PMS_P2;Temp;Humidity;BMP_temperature;BMP_pressure;BME280_temperature;BME280_humidity;BME280_pressure;Samples;Min_cycle;Max_cycle;Signal;HPM_P1;HPM_P2
2021/04/22 00:00:19;;;;;;;12.97;3.63;;;;;;;4.03;64.49;100931.91;5115227;28;20615;-82
2021/04/22 00:02:45;;;;;;;8.23;4.30;;;;;;;4.01;64.58;100938.75;5114846;28;20618;-83
2021/04/22 00:05:20;;;;;;;8.30;2.93;;;;;;;4.03;64.55;100938.78;5115304;27;20258;-82
2021/04/22 00:07:46;;;;;;;16.60;4.97;;;;;;;4.03;64.15;100942.22;5115569;28;20210;-81
2021/04/22 00:10:15;;;;;;;12.00;3.80;;;;;;;4.02;64.27;100940.47;5116905;28;20207;-82
2021/04/22 00:12:41;;;;;;;9.20;3.90;;;;;;;4.07;64.47;100941.44;5114874;28;20249;-83
2021/04/22 00:15:11;;;;;;;8.07;3.33;;;;;;;4.19;64.05;100938.19;5114870;27;20280;-82
2021/04/22 00:17:37;;;;;;;9.47;3.93;;;;;;;4.24;63.62;100945.97;5114106;28;20215;-81
2021/04/22 00:20:04;;;;;;;13.73;3.43;;;;;;;4.18;63.94;100944.16;5115549;27;20202;-83
2021/04/22 00:22:30;;;;;;;12.73;3.87;;;;;;;4.08;64.52;100937.13;5114963;28;20207;-82
2021/04/22 00:24:56;;;;;;;7.97;3.50;;;;;;;4.04;64.73;100941.38;5115487;28;20207;-82
2021/04/22 00:27:23;;;;;;;17.40;5.57;;;;;;;4.04;65.14;100937.94;5114880;27;20235;-83
2021/04/22 00:29:49;;;;;;;10.93;3.87;;;;;;;4.04;64.91;100941.38;5115092;28;20207;-82
2021/04/22 00:32:15;;;;;;;12.97;4.17;;;;;;;4.08;64.81;100945.75;5114436;28;20245;-83
2021/04/22 00:34:41;;;;;;;10.07;4.13;;;;;;;4.16;64.07;100949.34;5114687;28;20215;-82
2021/04/22 00:37:07;;;;;;;15.43;3.67;;;;;;;4.22;63.72;100935.63;5114354;28;20249;-83
2021/04/22 00:39:33;;;;;;;15.50;4.47;;;;;;;4.17;64.10;100937.28;5115436;28;20211;-83
2021/04/22 00:41:59;;;;;;;10.10;4.30;;;;;;;4.25;63.09;100939.97;5115138;28;20215;-82
2021/04/22 00:44:26;;;;;;;13.77;3.90;;;;;;;4.21;63.14;100939.06;5114495;28;20796;-82
2021/04/22 00:46:52;;;;;;;13.30;4.00;;;;;;;4.13;64.09;100943.25;5114424;28;20258;-81
2021/04/22 00:49:18;;;;;;;9.90;4.10;;;;;;;4.18;62.97;100945.06;5115058;28;20257;-82
2021/04/22 00:51:44;;;;;;;14.10;4.50;;;;;;;4.14;63.00;100951.03;5114258;27;20231;-82
2021/04/22 00:54:10;;;;;;;9.67;4.10;;;;;;;4.11;63.73;100947.53;5115966;27;20204;-81
2021/04/22 00:56:36;;;;;;;12.50;4.20;;;;;;;4.07;62.93;100950.91;5115154;28;20223;-82
2021/04/22 00:59:02;;;;;;;8.80;3.33;;;;;;;4.08;62.74;100952.63;5114765;28;21748;-82
2021/04/22 01:01:29;;;;;;;12.13;4.33;;;;;;;4.07;62.27;100946.59;5115294;28;20199;-83
2021/04/22 01:03:55;;;;;;;10.93;4.70;;;;;;;4.15;62.47;100947.59;5114296;28;20199;-82
2021/04/22 01:06:22;;;;;;;13.10;4.30;;;;;;;4.10;62.07;100953.53;5115619;27;20220;-83
2021/04/22 01:08:47;;;;;;;18.30;4.30;;;;;;;4.14;62.67;100950.13;5115507;28;20238;-83
2021/04/22 01:11:14;;;;;;;10.57;4.23;;;;;;;4.12;63.20;100951.81;5114887;28;20293;-82
2021/04/22 01:13:40;;;;;;;8.47;3.83;;;;;;;4.19;62.39;100948.50;5115033;28;20211;-83
2021/04/22 01:16:06;;;;;;;12.23;4.13;;;;;;;4.17;62.25;100950.19;5114142;27;21614;-83
2021/04/22 01:18:33;;;;;;;18.60;5.47;;;;;;;4.14;62.97;100951.03;5115018;28;20293;-83
2021/04/22 01:21:02;;;;;;;11.70;4.23;;;;;;;4.15;63.62;100954.47;5115098;28;20207;-83
2021/04/22 01:23:29;;;;;;;12.23;3.90;;;;;;;4.16;63.32;100958.78;5115078;28;20213;-83
2021/04/22 01:25:55;;;;;;;9.30;4.13;;;;;;;4.12;64.23;100960.47;5116079;27;20223;-83
2021/04/22 01:28:24;;;;;;;9.27;3.93;;;;;;;4.17;63.87;100957.94;5114118;28;20214;-82
2021/04/22 01:30:51;;;;;;;12.77;4.63;;;;;;;4.19;63.83;100961.44;5113881;28;20199;-82
2021/04/22 01:33:22;;;;;;;11.60;4.10;;;;;;;4.17;63.40;100961.41;5112947;28;20223;-81
2021/04/22 01:35:50;;;;;;;9.20;3.37;;;;;;;4.13;62.11;100964.78;5113114;28;20219;-81
2021/04/22 01:38:17;;;;;;;11.97;4.00;;;;;;;4.15;62.44;100957.91;5112770;28;20782;-83
2021/04/22 01:40:45;;;;;;;11.97;4.03;;;;;;;4.14;62.98;100950.13;5112906;28;20199;-81
2021/04/22 01:43:11;;;;;;;13.33;3.97;;;;;;;4.23;61.94;100949.44;5112322;28;20232;-81
2021/04/22 01:45:37;;;;;;;10.13;3.37;;;;;;;4.23;61.58;100955.47;5113096;28;20223;-82
2021/04/22 01:48:05;;;;;;;9.20;3.90;;;;;;;4.27;60.93;100959.81;5112255;28;20204;-82
2021/04/22 01:50:32;;;;;;;8.10;3.30;;;;;;;4.29;61.92;100963.31;5112199;28;20241;-81
2021/04/22 01:52:59;;;;;;;6.53;3.30;;;;;;;4.30;61.55;100957.31;5112552;28;20696;-83
2021/04/22 01:55:29;;;;;;;8.47;3.33;;;;;;;4.33;61.05;100954.75;5112335;28;20601;-82
2021/04/22 01:57:56;;;;;;;9.93;3.30;;;;;;;4.31;61.02;100953.84;5111550;28;20220;-82
2021/04/22 02:00:27;;;;;;;7.37;3.17;;;;;;;4.32;60.73;100959.88;5111411;28;20204;-83
2021/04/22 02:02:53;;;;;;;13.97;3.37;;;;;;;4.37;60.75;100959.09;5111709;28;20643;-82
2021/04/22 02:05:20;;;;;;;9.70;2.87;;;;;;;4.31;61.36;100956.44;5112066;28;20665;-83
2021/04/22 02:07:46;;;;;;;8.97;4.00;;;;;;;4.33;62.11;100954.75;5112005;28;20219;-83
2021/04/22 02:10:13;;;;;;;12.53;4.10;;;;;;;4.26;62.53;100960.69;5112650;28;20211;-81
2021/04/22 02:12:39;;;;;;;10.57;3.90;;;;;;;4.32;63.02;100953.03;5112205;28;20790;-82
2021/04/22 02:15:10;;;;;;;12.90;3.70;;;;;;;4.38;62.37;100957.41;5113292;28;20294;-81
2021/04/22 02:17:36;;;;;;;6.30;2.50;;;;;;;4.26;62.49;100967.53;5111563;28;20215;-81
2021/04/22 02:20:05;;;;;;;9.53;3.23;;;;;;;4.22;62.84;100970.94;5113255;28;20215;-82
2021/04/22 02:22:31;;;;;;;7.07;3.20;;;;;;;4.23;62.99;100970.97;5112817;28;20211;-82
2021/04/22 02:24:57;;;;;;;7.80;3.57;;;;;;;4.33;62.46;100970.25;5113167;28;20215;-82
2021/04/22 02:27:23;;;;;;;10.37;3.37;;;;;;;4.27;62.47;100962.41;5112049;28;20258;-81
2021/04/22 02:29:49;;;;;;;10.60;3.30;;;;;;;4.26;62.01;100975.28;5111825;28;20210;-82
2021/04/22 02:32:16;;;;;;;11.23;3.27;;;;;;;4.27;62.29;100980.50;5112978;28;20224;-81
2021/04/22 02:34:41;;;;;;;11.83;3.07;;;;;;;4.27;62.37;100977.06;5112060;28;20203;-81
2021/04/22 02:37:07;;;;;;;11.30;3.40;;;;;;;4.20;63.12;100976.06;5111904;28;20226;-82
2021/04/22 02:39:33;;;;;;;12.20;3.60;;;;;;;4.22;63.55;100973.50;5113240;28;20207;-82
2021/04/22 02:41:59;;;;;;;11.07;3.97;;;;;;;4.22;63.28;100976.97;5111873;28;20195;-82
2021/04/22 02:44:25;;;;;;;11.70;3.23;;;;;;;4.21;63.23;100976.97;5111996;28;20223;-82
2021/04/22 02:46:51;;;;;;;11.07;3.60;;;;;;;4.27;63.47;100983.09;5113843;28;20756;-83
2021/04/22 02:49:18;;;;;;;10.87;3.83;;;;;;;4.30;64.00;100977.97;5115658;28;20196;-83
2021/04/22 02:51:44;;;;;;;12.13;3.67;;;;;;;4.28;64.45;100971.03;5115959;27;20227;-83
2021/04/22 02:54:10;;;;;;;11.40;3.47;;;;;;;4.21;64.40;100972.66;5116477;27;20200;-82
2021/04/22 02:56:36;;;;;;;10.23;3.40;;;;;;;4.14;64.44;100971.69;5115935;27;20291;-81
2021/04/22 02:59:03;;;;;;;7.40;3.30;;;;;;;4.15;64.03;100972.56;5116717;28;20282;-82
2021/04/22 03:01:29;;;;;;;11.73;3.13;;;;;;;4.22;64.09;100966.63;5114533;28;20216;-82
2021/04/22 03:03:54;;;;;;;13.50;4.23;;;;;;;4.27;63.63;100971.88;5114568;27;20214;-80
2021/04/22 03:06:21;;;;;;;7.97;3.50;;;;;;;4.24;62.97;100970.13;5113172;27;20291;-81
2021/04/22 03:08:47;;;;;;;9.00;3.53;;;;;;;4.20;63.75;100982.97;5115237;27;20210;-81
2021/04/22 03:11:14;;;;;;;7.10;2.83;;;;;;;4.18;64.20;100970.91;5112506;28;20207;-81
2021/04/22 03:13:40;;;;;;;10.23;3.87;;;;;;;4.16;65.48;100963.94;5114109;28;20215;-81
2021/04/22 03:16:07;;;;;;;12.80;3.13;;;;;;;4.19;64.58;100974.34;5114053;27;20223;-80
2021/04/22 03:18:33;;;;;;;7.53;3.37;;;;;;;4.21;64.31;100979.53;5114264;28;20499;-81
2021/04/22 03:20:59;;;;;;;13.87;3.63;;;;;;;4.22;65.62;100984.72;5113602;28;20744;-80
2021/04/22 03:23:26;;;;;;;12.67;3.10;;;;;;;4.17;65.77;100976.91;5113836;28;20614;-80
2021/04/22 03:25:52;;;;;;;10.30;2.90;;;;;;;4.24;65.97;100979.56;5113664;27;20235;-81
2021/04/22 03:28:18;;;;;;;7.67;3.33;;;;;;;4.26;65.87;100990.81;5114140;28;20284;-81
2021/04/22 03:30:44;;;;;;;7.47;2.80;;;;;;;4.24;66.16;100995.06;5112848;27;20206;-81
2021/04/22 03:33:10;;;;;;;8.60;3.20;;;;;;;4.25;65.01;100994.25;5114106;28;20226;-82
2021/04/22 03:35:36;;;;;;;14.30;3.03;;;;;;;4.23;65.56;100989.03;5112968;28;20227;-80
2021/04/22 03:38:02;;;;;;;10.60;3.47;;;;;;;4.16;65.28;100989.78;5114916;28;20211;-80
2021/04/22 03:40:29;;;;;;;9.80;2.90;;;;;;;4.13;64.60;100987.16;5113114;28;20204;-80
2021/04/22 03:42:55;;;;;;;9.43;3.20;;;;;;;4.18;64.83;100982.94;5113392;28;20208;-81
2021/04/22 03:45:23;;;;;;;10.63;3.00;;;;;;;4.15;64.82;100977.72;5113935;27;20256;-81
2021/04/22 03:47:50;;;;;;;7.97;3.40;;;;;;;4.14;64.17;100981.13;5112991;28;20692;-81
2021/04/22 03:50:18;;;;;;;8.40;2.97;;;;;;;4.17;64.08;100978.63;5115181;27;20204;-81
2021/04/22 03:52:45;;;;;;;10.60;3.80;;;;;;;4.19;64.01;100982.09;5113678;27;20227;-81
2021/04/22 03:55:13;;;;;;;8.87;2.53;;;;;;;4.16;63.73;100982.94;5115518;27;20569;-82
2021/04/22 03:57:40;;;;;;;8.93;3.00;;;;;;;4.23;62.74;100983.03;5114500;28;20204;-81
2021/04/22 04:00:07;;;;;;;7.73;2.93;;;;;;;4.25;63.24;100981.31;5114322;28;20233;-81
2021/04/22 04:02:33;;;;;;;10.50;3.23;;;;;;;4.15;63.93;100980.31;5114122;28;20676;-80
2021/04/22 04:04:59;;;;;;;16.13;3.33;;;;;;;4.21;63.65;100985.56;5114179;28;20203;-82
2021/04/22 04:07:25;;;;;;;13.73;3.57;;;;;;;4.27;63.50;100985.66;5113129;28;20253;-81
2021/04/22 04:09:51;;;;;;;7.30;2.47;;;;;;;4.16;64.17;100985.50;5113658;27;20218;-81
2021/04/22 04:12:17;;;;;;;7.37;2.97;;;;;;;4.16;64.73;100992.38;5113791;28;20310;-81
2021/04/22 04:14:44;;;;;;;13.23;3.83;;;;;;;4.15;64.28;100995.81;5113572;27;20284;-81
2021/04/22 04:17:10;;;;;;;9.07;2.67;;;;;;;4.20;63.65;100988.13;5113010;27;20238;-81
2021/04/22 04:19:36;;;;;;;8.80;2.83;;;;;;;4.26;62.65;100990.81;5115614;28;20673;-80
2021/04/22 04:22:02;;;;;;;11.67;3.03;;;;;;;4.35;62.80;100975.44;5114904;27;20336;-81
2021/04/22 04:24:28;;;;;;;9.40;2.73;;;;;;;4.31;62.65;100984.88;5115442;27;20229;-81
2021/04/22 04:26:54;;;;;;;8.37;2.70;;;;;;;4.30;62.11;100987.41;5112667;28;20276;-80
2021/04/22 04:29:20;;;;;;;13.87;2.77;;;;;;;4.37;62.58;100991.84;5113368;28;20298;-82
2021/04/22 04:31:47;;;;;;;11.27;2.83;;;;;;;4.47;62.52;100993.72;5114328;27;20220;-81
2021/04/22 04:34:13;;;;;;;7.37;2.90;;;;;;;4.36;62.64;100993.56;5112112;27;20211;-81
2021/04/22 04:36:43;;;;;;;11.63;3.47;;;;;;;4.32;63.37;100990.91;5112134;27;20246;-82
2021/04/22 04:39:10;;;;;;;8.27;3.23;;;;;;;4.30;63.27;100993.47;5113391;27;20205;-82
2021/04/22 04:41:36;;;;;;;8.77;3.40;;;;;;;4.34;64.23;101000.44;5111036;28;20377;-82
2021/04/22 04:44:02;;;;;;;7.07;2.90;;;;;;;4.36;64.43;100992.69;5111819;28;20227;-81
2021/04/22 04:46:30;;;;;;;12.27;2.73;;;;;;;4.31;63.67;101008.13;5112473;27;20223;-81
2021/04/22 04:48:57;;;;;;;9.27;3.10;;;;;;;4.31;63.17;101005.53;5110739;28;20211;-81
2021/04/22 04:51:23;;;;;;;11.30;3.47;;;;;;;4.22;63.61;101015.72;5111281;27;20195;-80
2021/04/22 04:53:51;;;;;;;13.77;3.97;;;;;;;4.27;62.92;101008.06;5112022;27;20680;-82
2021/04/22 04:56:18;;;;;;;13.47;3.63;;;;;;;4.25;63.24;101014.91;5111753;28;20235;-82
2021/04/22 04:58:44;;;;;;;9.40;2.67;;;;;;;4.24;63.46;101006.31;5112569;28;20264;-82
2021/04/22 05:01:10;;;;;;;14.17;2.97;;;;;;;4.24;63.87;101002.81;5111461;28;20196;-79
2021/04/22 05:03:36;;;;;;;8.40;3.07;;;;;;;4.28;63.22;101007.19;5109734;28;20253;-81
2021/04/22 05:06:03;;;;;;;8.17;2.93;;;;;;;4.40;63.79;101015.16;5110350;28;20244;-81
2021/04/22 05:08:29;;;;;;;17.70;3.80;;;;;;;4.42;63.17;101022.94;5111796;28;20203;-83
2021/04/22 05:10:55;;;;;;;6.37;2.30;;;;;;;4.43;62.80;101029.84;5110988;28;20218;-81
2021/04/22 05:13:21;;;;;;;6.13;2.77;;;;;;;4.42;62.83;101034.16;5111914;28;20227;-83
2021/04/22 05:15:47;;;;;;;9.73;2.57;;;;;;;4.37;63.48;101033.19;5112359;28;20661;-81
2021/04/22 05:18:13;;;;;;;8.03;3.57;;;;;;;4.37;63.64;101040.94;5111857;28;20206;-81
2021/04/22 05:20:39;;;;;;;12.53;3.07;;;;;;;4.46;63.47;101043.69;5112167;28;20235;-81
2021/04/22 05:23:06;;;;;;;9.00;2.70;;;;;;;4.60;63.20;101037.84;5112004;28;20204;-82
2021/04/22 05:25:32;;;;;;;11.30;4.13;;;;;;;4.46;63.03;101035.03;5114498;28;20232;-81
2021/04/22 05:27:57;;;;;;;9.77;3.03;;;;;;;4.54;63.10;101042.09;5112730;28;20204;-82
2021/04/22 05:30:24;;;;;;;11.20;3.73;;;;;;;4.55;63.41;101049.00;5112008;28;20661;-82
2021/04/22 05:32:50;;;;;;;8.13;2.93;;;;;;;4.53;63.24;101037.75;5112006;28;20215;-81
2021/04/22 05:35:17;;;;;;;8.30;2.83;;;;;;;4.57;63.08;101044.72;5113040;28;20234;-81
2021/04/22 05:37:43;;;;;;;6.03;2.27;;;;;;;4.56;62.98;101052.47;5112111;28;20231;-81
2021/04/22 05:40:11;;;;;;;10.90;3.03;;;;;;;4.55;63.87;101048.13;5111650;28;20203;-80
2021/04/22 05:42:37;;;;;;;12.63;3.00;;;;;;;4.56;63.78;101052.47;5110603;28;20204;-80
2021/04/22 05:45:05;;;;;;;8.03;2.97;;;;;;;4.64;63.83;101049.97;5112258;28;20215;-78
2021/04/22 05:47:30;;;;;;;14.63;3.47;;;;;;;4.55;63.39;101048.13;5114675;28;20223;-79
2021/04/22 05:49:56;;;;;;;7.53;2.80;;;;;;;4.60;63.26;101051.66;5114073;28;20227;-80
2021/04/22 05:52:22;;;;;;;10.87;2.70;;;;;;;4.68;63.38;101056.97;5112558;28;20706;-80
2021/04/22 05:54:48;;;;;;;22.50;3.00;;;;;;;4.61;62.94;101053.38;5113077;28;20203;-79
2021/04/22 05:57:15;;;;;;;12.27;3.33;;;;;;;4.68;62.78;101060.41;5113721;28;20223;-80
2021/04/22 05:59:41;;;;;;;11.73;3.00;;;;;;;4.77;62.57;101057.06;5112120;28;20211;-80
2021/04/22 06:02:08;;;;;;;8.93;3.23;;;;;;;4.85;61.91;101050.28;5113128;28;20667;-81
2021/04/22 06:04:34;;;;;;;11.37;2.80;;;;;;;4.91;61.77;101054.69;5114887;28;20317;-80
2021/04/22 06:07:00;;;;;;;14.00;3.13;;;;;;;4.93;62.16;101055.56;5114301;28;20349;-80
2021/04/22 06:09:26;;;;;;;5.67;2.53;;;;;;;4.90;60.89;101055.56;5114753;28;20215;-81
2021/04/22 06:11:52;;;;;;;8.10;2.30;;;;;;;4.83;61.26;101054.56;5112985;28;20274;-80
2021/04/22 06:14:18;;;;;;;6.57;2.50;;;;;;;4.97;61.50;101058.25;5114148;28;20226;-80
2021/04/22 06:16:44;;;;;;;8.90;2.90;;;;;;;5.03;61.82;101067.78;5112298;28;20228;-79
2021/04/22 06:19:10;;;;;;;8.23;3.23;;;;;;;5.04;60.72;101066.09;5114655;28;20264;-80
2021/04/22 06:21:36;;;;;;;9.43;2.60;;;;;;;5.06;60.90;101070.44;5115626;28;20207;-79
2021/04/22 06:24:03;;;;;;;7.27;2.90;;;;;;;5.07;60.71;101066.97;5117956;28;20212;-79
2021/04/22 06:26:31;;;;;;;7.20;2.87;;;;;;;5.16;61.30;101080.06;5115277;28;20227;-80
2021/04/22 06:29:00;;;;;;;7.27;1.90;;;;;;;5.25;61.00;101079.31;5116333;28;20203;-80
2021/04/22 06:31:27;;;;;;;5.37;2.30;;;;;;;5.16;60.83;101080.06;5115140;28;20212;-79
2021/04/22 06:33:53;;;;;;;7.13;2.17;;;;;;;5.14;61.82;101074.00;5115100;27;20253;-79
2021/04/22 06:36:19;;;;;;;11.23;3.13;;;;;;;5.36;61.29;101082.91;5115224;27;20227;-81
2021/04/22 06:38:45;;;;;;;10.23;2.97;;;;;;;5.19;61.14;101076.63;5116765;27;20204;-80
2021/04/22 06:41:11;;;;;;;10.90;2.80;;;;;;;5.28;61.14;101083.66;5114013;28;20199;-80
2021/04/22 06:43:37;;;;;;;6.90;2.47;;;;;;;5.34;61.68;101081.16;5112877;28;20245;-80
2021/04/22 06:46:03;;;;;;;10.07;2.83;;;;;;;5.35;61.58;101083.78;5112439;27;20227;-81
2021/04/22 06:48:30;;;;;;;7.13;2.73;;;;;;;5.42;62.60;101086.44;5113016;28;20211;-80
2021/04/22 06:50:56;;;;;;;5.47;2.33;;;;;;;5.44;61.40;101088.19;5113450;27;20200;-78
2021/04/22 06:53:22;;;;;;;10.97;3.20;;;;;;;5.36;61.71;101090.66;5112517;28;20600;-80
2021/04/22 06:55:48;;;;;;;11.77;3.27;;;;;;;5.37;62.31;101087.25;5113225;27;20316;-81
2021/04/22 06:58:15;;;;;;;11.50;3.00;;;;;;;5.44;62.46;101090.78;5112750;28;20214;-80
2021/04/22 07:00:42;;;;;;;7.30;2.50;;;;;;;5.49;62.05;101089.13;5111079;27;20208;-79
2021/04/22 07:03:08;;;;;;;7.53;2.50;;;;;;;5.61;62.40;101101.34;5112360;28;20676;-80
2021/04/22 07:05:35;;;;;;;8.20;2.93;;;;;;;5.54;61.49;101094.34;5112019;27;20224;-79
2021/04/22 07:08:01;;;;;;;16.80;3.90;;;;;;;5.53;61.97;101103.84;5112506;28;20207;-80
2021/04/22 07:10:27;;;;;;;8.77;3.53;;;;;;;5.67;62.30;101092.75;5112371;27;20708;-80
2021/04/22 07:12:54;;;;;;;9.93;2.97;;;;;;;5.61;61.87;101101.34;5111760;28;20234;-81
2021/04/22 07:15:20;;;;;;;10.27;2.87;;;;;;;5.71;61.26;101098.00;5114577;28;20223;-79
2021/04/22 07:17:46;;;;;;;11.93;4.07;;;;;;;5.91;61.05;101099.97;5111760;28;20446;-79
2021/04/22 07:20:15;;;;;;;8.53;2.40;;;;;;;5.87;61.00;101095.59;5115061;28;21210;-80
2021/04/22 07:22:43;;;;;;;9.47;3.07;;;;;;;5.85;61.11;101086.94;5117084;28;20762;-80
2021/04/22 07:25:11;;;;;;;7.87;2.77;;;;;;;5.87;60.85;101101.66;5118931;28;20665;-81
2021/04/22 07:27:37;;;;;;;9.90;2.33;;;;;;;5.90;60.75;101091.28;5118289;28;20217;-80
2021/04/22 07:30:04;;;;;;;9.17;2.80;;;;;;;5.93;61.05;101095.66;5118123;27;20211;-81
2021/04/22 07:32:30;;;;;;;7.27;2.33;;;;;;;5.99;61.60;101098.34;5117841;28;20223;-79
2021/04/22 07:34:56;;;;;;;6.67;2.23;;;;;;;5.97;60.42;101100.91;5117656;28;20208;-80
2021/04/22 07:37:22;;;;;;;9.67;4.57;;;;;;;6.10;60.28;101108.81;5120279;28;20258;-81
2021/04/22 07:39:49;;;;;;;6.33;2.43;;;;;;;6.04;59.24;101103.56;5118178;27;20207;-79
2021/04/22 07:42:15;;;;;;;10.23;2.90;;;;;;;5.94;59.92;101102.56;5118896;27;20264;-80
2021/04/22 07:44:42;;;;;;;9.40;3.03;;;;;;;6.19;59.68;101101.13;5123704;28;20214;-79
2021/04/22 07:47:08;;;;;;;7.37;2.17;;;;;;;6.27;59.35;101112.44;5122902;28;20261;-81
2021/04/22 07:49:34;;;;;;;7.43;2.63;;;;;;;6.25;58.89;101114.16;5125506;28;20204;-81
2021/04/22 07:52:00;;;;;;;4.83;2.27;;;;;;;6.27;59.19;101111.59;5125378;28;20243;-79
2021/04/22 07:54:26;;;;;;;8.77;2.67;;;;;;;6.40;58.83;101110.81;5126243;27;20851;-80
2021/04/22 07:56:53;;;;;;;10.50;3.45;;;;;;;6.47;59.57;101127.31;5123200;28;20439;-78
2021/04/22 07:59:19;;;;;;;5.90;2.63;;;;;;;6.60;58.97;101115.31;5128197;28;20199;-79
2021/04/22 08:01:45;;;;;;;7.53;2.97;;;;;;;6.49;59.17;101128.22;5124509;27;20219;-78
2021/04/22 08:04:11;;;;;;;7.10;2.77;;;;;;;6.61;58.00;101123.13;5118593;28;20262;-79
2021/04/22 08:06:37;;;;;;;8.10;2.63;;;;;;;6.72;58.23;101120.63;5121283;28;20264;-80
2021/04/22 08:09:04;;;;;;;9.40;2.90;;;;;;;6.65;58.78;101122.28;5117518;27;20211;-78
2021/04/22 08:11:31;;;;;;;7.93;2.47;;;;;;;6.44;58.68;101129.88;5115023;27;20574;-77
2021/04/22 08:13:58;;;;;;;8.97;3.33;;;;;;;6.56;59.52;101135.16;5116222;27;20260;-77
2021/04/22 08:16:24;;;;;;;7.70;3.07;;;;;;;6.28;59.45;101129.75;5110054;28;20221;-77
2021/04/22 08:18:50;;;;;;;5.90;2.60;;;;;;;6.32;59.66;101141.00;5111852;28;20199;-78
2021/04/22 08:21:17;;;;;;;8.30;2.70;;;;;;;6.53;59.74;101148.13;5113574;27;20515;-79
2021/04/22 08:23:43;;;;;;;9.17;2.97;;;;;;;6.67;59.12;101140.47;5116355;28;20211;-79
2021/04/22 08:26:12;;;;;;;10.57;3.00;;;;;;;6.47;59.38;101145.47;5114761;27;20760;-79
2021/04/22 08:28:38;;;;;;;6.83;2.67;;;;;;;6.57;59.09;101155.94;5116601;28;20213;-79
2021/04/22 08:31:07;;;;;;;6.47;2.87;;;;;;;6.51;58.52;101148.09;5115266;27;20661;-80
2021/04/22 08:33:35;;;;;;;8.67;2.67;;;;;;;6.68;58.53;101150.88;5116685;28;20237;-80
2021/04/22 08:36:02;;;;;;;6.50;2.93;;;;;;;6.73;58.09;101150.88;5116849;28;20230;-79
2021/04/22 08:38:28;;;;;;;6.80;2.90;;;;;;;6.97;57.59;101147.63;5118663;28;20211;-79
2021/04/22 08:40:55;;;;;;;9.30;3.00;;;;;;;6.96;57.63;101156.28;5116297;27;20199;-78
2021/04/22 08:43:22;;;;;;;6.73;2.57;;;;;;;6.86;56.93;101162.25;5115519;28;20222;-79
2021/04/22 08:45:48;;;;;;;8.13;2.87;;;;;;;6.94;58.27;101151.06;5116884;28;20221;-79
2021/04/22 08:48:15;;;;;;;9.80;2.93;;;;;;;7.00;57.70;101149.34;5116483;28;20205;-79
2021/04/22 08:50:44;;;;;;;7.33;2.80;;;;;;;6.92;57.63;101151.91;5116132;28;20255;-78
2021/04/22 08:53:18;;;;;;;7.20;2.80;;;;;;;6.95;57.08;101165.75;5115638;28;20225;-79
2021/04/22 08:55:45;;;;;;;13.00;3.20;;;;;;;6.96;57.11;101144.16;5116686;27;20312;-79
2021/04/22 08:58:12;;;;;;;7.80;2.37;;;;;;;6.92;57.52;101159.69;5115567;28;20227;-80
2021/04/22 09:00:41;;;;;;;9.73;2.73;;;;;;;7.24;57.10;101162.50;4409229;27;10000761;-79
2021/04/22 09:03:07;;;;;;;7.27;2.73;;;;;;;7.18;57.59;101149.50;5112667;28;20203;-78
2021/04/22 09:05:33;;;;;;;7.97;2.60;;;;;;;7.32;55.73;101147.84;5112607;27;20768;-78
2021/04/22 09:07:59;;;;;;;9.37;2.70;;;;;;;7.26;56.23;101155.59;5112616;28;20204;-79
2021/04/22 09:10:27;;;;;;;7.60;3.10;;;;;;;7.52;56.51;101157.47;5113879;27;20216;-79
2021/04/22 09:13:01;;;;;;;9.67;3.47;;;;;;;7.61;56.45;101154.94;5112671;28;20233;-79
2021/04/22 09:15:28;;;;;;;6.97;3.23;;;;;;;7.67;56.81;101164.47;5111325;28;20216;-79
2021/04/22 09:17:59;;;;;;;8.83;2.67;;;;;;;7.26;56.37;101160.78;5109981;28;20199;-78
2021/04/22 09:20:31;;;;;;;8.40;3.17;;;;;;;7.40;56.69;101166.06;5112401;28;20221;-78
2021/04/22 09:22:59;;;;;;;7.93;2.87;;;;;;;7.55;57.02;101160.97;5113465;28;20198;-79
2021/04/22 09:25:27;;;;;;;11.80;2.60;;;;;;;7.65;55.26;101171.38;5111355;28;20209;-78
2021/04/22 09:28:03;;;;;;;6.60;2.63;;;;;;;7.70;54.12;101159.31;5111663;28;20205;-79
2021/04/22 09:30:33;;;;;;;6.00;1.83;;;;;;;7.65;53.05;101156.69;5112089;28;20205;-78
2021/04/22 09:32:59;;;;;;;6.07;2.50;;;;;;;7.78;53.42;101161.94;5111360;28;20285;-78
2021/04/22 09:35:26;;;;;;;6.10;2.47;;;;;;;8.02;53.19;101163.75;5111470;28;21009;-78
2021/04/22 09:37:53;;;;;;;10.13;2.43;;;;;;;8.24;52.03;101159.47;5112102;28;20231;-78
2021/04/22 09:40:24;;;;;;;6.87;2.37;;;;;;;8.22;51.42;101164.66;5112244;28;20196;-78
2021/04/22 09:42:52;;;;;;;9.47;2.50;;;;;;;8.13;51.27;101155.13;5111521;28;20264;-79
2021/04/22 09:45:21;;;;;;;4.80;2.33;;;;;;;7.66;52.11;101163.59;5110700;28;20199;-79
2021/04/22 09:47:47;;;;;;;8.57;2.10;;;;;;;7.83;53.28;101155.91;5112810;28;20208;-78
2021/04/22 09:50:17;;;;;;;8.47;2.10;;;;;;;7.91;52.16;101158.53;5112848;28;20222;-79
2021/04/22 09:52:45;;;;;;;5.07;3.10;;;;;;;7.91;52.81;101169.78;5111789;28;20697;-79
2021/04/22 09:55:15;;;;;;;6.77;2.37;;;;;;;7.89;50.01;101158.50;5113705;28;20208;-79
2021/04/22 09:57:43;;;;;;;4.37;2.40;;;;;;;7.83;51.18;101162.81;5115268;28;20209;-79
2021/04/22 10:00:14;;;;;;;9.30;2.67;;;;;;;7.90;49.95;101160.25;5118077;28;20299;-78
2021/04/22 10:02:51;;;;;;;7.33;2.70;;;;;;;8.09;49.26;101160.31;5116154;28;20204;-79
2021/04/22 10:05:19;;;;;;;7.90;2.60;;;;;;;8.32;49.97;101160.34;5117724;28;20201;-79
2021/04/22 10:07:45;;;;;;;8.73;2.90;;;;;;;8.69;49.84;101173.47;5116535;28;20227;-79
2021/04/22 10:10:21;;;;;;;6.63;2.37;;;;;;;8.81;48.81;101181.25;5116431;28;20207;-78
2021/04/22 10:12:49;;;;;;;10.33;2.60;;;;;;;8.84;50.23;101157.84;5115510;28;20244;-79
2021/04/22 10:15:18;;;;;;;6.50;2.70;;;;;;;8.75;49.88;101173.47;5114825;28;20208;-78
2021/04/22 10:17:53;;;;;;;10.00;2.80;;;;;;;8.72;48.52;101176.03;5114552;28;20208;-79
2021/04/22 10:20:19;;;;;;;6.63;2.47;;;;;;;8.73;49.13;101164.78;5114480;28;20282;-79
2021/04/22 10:22:46;;;;;;;5.67;2.63;;;;;;;8.96;48.15;101164.78;4761930;27;9999861;-79
2021/04/22 10:25:15;;;;;;;8.43;2.47;;;;;;;8.87;47.37;101163.03;5117018;27;20218;-79
2021/04/22 10:27:41;;;;;;;5.57;2.60;;;;;;;8.54;49.31;101172.59;5113843;27;20205;-79
2021/04/22 10:30:12;;;;;;;7.20;2.33;;;;;;;8.16;49.61;101169.84;5115968;27;20197;-79
2021/04/22 10:32:39;;;;;;;5.00;2.63;;;;;;;8.41;49.33;101167.31;5114274;28;20227;-78
2021/04/22 10:35:07;;;;;;;4.77;2.23;;;;;;;8.68;47.78;101172.59;5117490;27;20213;-78
2021/04/22 10:37:34;;;;;;;6.33;2.33;;;;;;;8.64;48.59;101170.88;5115213;27;20243;-79
2021/04/22 10:40:02;;;;;;;7.13;3.13;;;;;;;8.72;48.33;101173.44;5117724;27;20209;-79
2021/04/22 10:42:29;;;;;;;3.97;2.20;;;;;;;9.01;47.96;101160.44;5118809;27;20298;-79
2021/04/22 10:44:55;;;;;;;5.73;2.37;;;;;;;9.10;47.32;101164.78;5119986;27;20208;-79
2021/04/22 10:47:24;;;;;;;8.20;2.93;;;;;;;8.99;47.32;101169.97;5117137;28;20221;-78
2021/04/22 10:49:51;;;;;;;9.30;2.97;;;;;;;9.20;47.04;101166.50;5120129;27;20206;-79
2021/04/22 10:52:19;;;;;;;17.83;2.80;;;;;;;8.80;47.79;101181.25;5117072;28;20668;-78
2021/04/22 10:54:47;;;;;;;9.50;2.50;;;;;;;8.76;47.34;101177.81;5120683;27;20213;-78
2021/04/22 10:57:15;;;;;;;8.17;2.47;;;;;;;8.91;48.52;101169.13;5118689;28;20228;-79
2021/04/22 10:59:44;;;;;;;7.63;2.80;;;;;;;9.28;48.59;101172.56;5120677;28;20205;-78
2021/04/22 11:02:15;;;;;;;5.43;2.57;;;;;;;9.45;46.86;101169.91;5119789;28;20196;-79
2021/04/22 11:04:43;;;;;;;5.90;2.63;;;;;;;9.47;46.17;101164.69;5121763;28;20209;-78
2021/04/22 11:07:18;;;;;;;6.13;2.70;;;;;;;9.06;46.88;101181.28;5117250;28;20219;-78
2021/04/22 11:09:45;;;;;;;8.77;2.90;;;;;;;9.24;47.98;101173.44;5121676;27;20544;-79
2021/04/22 11:12:11;;;;;;;5.27;2.40;;;;;;;9.49;47.52;101157.72;5121860;28;20261;-79
2021/04/22 11:14:41;;;;;;;6.90;2.77;;;;;;;9.52;46.70;101168.16;5118763;28;20221;-78
2021/04/22 11:17:08;;;;;;;4.47;2.23;;;;;;;9.49;44.34;101170.75;5113538;28;20230;-78
2021/04/22 11:19:36;;;;;;;5.33;2.30;;;;;;;9.57;44.87;101170.75;5114912;28;20912;-78
2021/04/22 11:22:15;;;;;;;8.13;3.03;;;;;;;9.30;44.93;101165.59;5115301;27;20232;-78
2021/04/22 11:24:45;;;;;;;4.17;2.43;;;;;;;9.39;47.06;101159.50;5116193;28;20664;-78
2021/04/22 11:27:13;;;;;;;4.90;2.80;;;;;;;9.32;44.79;101166.47;5117315;28;20230;-79